Terminal Aerodrome Forecast
Issued by NWS

Home | Current Version | Previous Version | Graphics & Text | Print | Product List | Glossary On
Versions: 1 2 3 4 5 6 7 8 9 10 11 12 13 14 15 16 17
152
FTUS41 KCLE 051131
TAFFDY
TAF
KFDY 051131Z 0512/0612 26012KT P6SM SCT009 OVC015
      TEMPO 0514/0517 BKN009
     FM051800 22008KT P6SM SCT015 OVC025
     FM060000 VRB04KT P6SM FEW025 SCT100 OVC200=

USA.gov is the U.S. government's official web portal to all federal, state and local government web resources and services.